createdAt,value
2019-02-25T00:00:14.600Z,99.90
2019-02-25T00:02:32.702Z,99.90
2019-02-25T00:04:37.784Z,99.90
2019-02-25T00:06:49.283Z,99.90
2019-02-25T00:08:54.442Z,99.90
2019-02-25T00:10:59.392Z,99.90
2019-02-25T00:13:04.658Z,99.90
2019-02-25T00:15:10.278Z,99.90
2019-02-25T00:17:15.348Z,99.90
2019-02-25T00:19:20.365Z,99.90
2019-02-25T00:21:25.392Z,99.90
2019-02-25T00:23:30.447Z,99.90
2019-02-25T00:25:35.425Z,99.90
2019-02-25T00:27:40.799Z,99.90
2019-02-25T00:29:45.919Z,99.90
2019-02-25T00:31:51.049Z,99.90
2019-02-25T00:33:56.172Z,99.90
2019-02-25T00:36:01.187Z,99.90
2019-02-25T00:38:06.449Z,99.90
2019-02-25T00:40:12.150Z,99.90
2019-02-25T00:42:17.184Z,99.90
2019-02-25T00:44:22.810Z,99.90
2019-02-25T00:46:27.847Z,99.90
2019-02-25T00:48:33.403Z,99.90
2019-02-25T00:50:57.921Z,99.90
2019-02-25T00:53:03.047Z,99.90
2019-02-25T00:55:08.751Z,99.90
2019-02-25T00:57:13.750Z,99.90
2019-02-25T00:59:18.825Z,99.90
2019-02-25T01:01:24.351Z,99.90
2019-02-25T01:03:29.648Z,99.90
2019-02-25T01:05:35.379Z,99.90
2019-02-25T01:07:40.453Z,99.90
2019-02-25T01:09:45.562Z,99.90
2019-02-25T01:11:50.635Z,99.90
2019-02-25T01:13:55.793Z,99.90
2019-02-25T01:16:00.824Z,99.90
2019-02-25T01:18:06.567Z,99.90
2019-02-25T01:20:11.899Z,99.90
2019-02-25T01:22:17.345Z,99.90
2019-02-25T01:24:22.856Z,99.90
2019-02-25T01:26:28.324Z,99.90
2019-02-25T01:28:33.498Z,99.90
2019-02-25T01:30:38.472Z,99.90
2019-02-25T01:32:43.888Z,99.90
2019-02-25T01:34:48.998Z,99.90
2019-02-25T01:36:54.057Z,99.90
2019-02-25T01:38:59.268Z,99.90
2019-02-25T01:41:11.544Z,99.90
2019-02-25T02:15:23.822Z,99.90
2019-02-25T02:17:28.885Z,99.90
2019-02-25T02:19:34.201Z,99.90
2019-02-25T02:21:39.133Z,99.90
2019-02-25T02:23:44.081Z,99.90
2019-02-25T02:25:53.005Z,99.90
2019-02-25T04:01:03.549Z,99.90
2019-02-25T04:06:24.107Z,99.90
2019-02-25T04:08:30.555Z,99.90
2019-02-25T04:10:35.811Z,99.90
2019-02-25T04:12:41.184Z,99.90
2019-02-25T04:14:46.314Z,99.90
2019-02-25T04:16:51.664Z,99.90
2019-02-25T04:18:59.259Z,99.90
2019-02-25T04:21:04.817Z,99.90
2019-02-25T04:23:11.176Z,99.90
2019-02-25T04:25:17.754Z,99.90
2019-02-25T04:27:23.382Z,99.90
2019-02-25T04:29:28.814Z,99.90
2019-02-25T04:31:33.593Z,99.90
2019-02-25T04:33:39.243Z,99.90
2019-02-25T04:35:46.188Z,99.90
2019-02-25T04:37:53.999Z,99.90
2019-02-25T04:40:00.308Z,99.90
2019-02-25T04:42:05.421Z,99.90
2019-02-25T04:44:10.917Z,99.90
2019-02-25T04:46:20.467Z,99.90
2019-02-25T04:48:32.641Z,99.90
2019-02-25T04:50:40.022Z,99.90
2019-02-25T04:52:45.330Z,99.90
2019-02-25T04:54:51.638Z,99.90
2019-02-25T04:56:59.459Z,99.90
2019-02-25T04:59:23.175Z,99.90
2019-02-25T05:01:36.095Z,99.90
2019-02-25T05:03:41.123Z,99.90
2019-02-25T05:05:45.851Z,99.90
2019-02-25T05:07:50.708Z,99.90
2019-02-25T05:10:11.909Z,99.90
2019-02-25T05:12:17.075Z,99.90
2019-02-25T05:14:21.914Z,99.90
2019-02-25T05:16:26.703Z,99.90
2019-02-25T05:18:32.225Z,99.90
2019-02-25T05:20:36.948Z,99.90
2019-02-25T05:22:41.669Z,99.90
2019-02-25T05:24:47.148Z,99.90
2019-02-25T05:26:51.935Z,99.90
2019-02-25T05:28:56.801Z,99.90
2019-02-25T05:31:01.658Z,99.90
2019-02-25T05:33:06.334Z,99.90
2019-02-25T05:35:11.485Z,99.90
2019-02-25T05:37:16.250Z,99.90
2019-02-25T05:39:21.042Z,99.90
2019-02-25T05:41:26.385Z,99.90
2019-02-25T05:43:31.148Z,99.90
2019-02-25T05:45:36.212Z,99.90
2019-02-25T05:47:41.440Z,99.90
2019-02-25T05:49:46.268Z,99.90
2019-02-25T05:51:51.110Z,99.90
2019-02-25T05:53:56.072Z,99.90
2019-02-25T05:56:00.955Z,99.90
2019-02-25T05:58:06.008Z,99.90
2019-02-25T06:00:19.580Z,99.90
2019-02-25T06:02:24.706Z,99.90
2019-02-25T06:04:29.912Z,99.90
2019-02-25T06:06:35.138Z,99.90
2019-02-25T06:08:40.043Z,99.90
2019-02-25T06:10:45.205Z,99.90
2019-02-25T06:12:50.431Z,99.90
2019-02-25T06:14:55.168Z,99.90
2019-02-25T06:16:59.984Z,99.90
2019-02-25T06:19:04.761Z,99.90
2019-02-25T06:21:09.638Z,99.90
2019-02-25T06:23:14.553Z,99.90
2019-02-25T06:25:22.189Z,99.90
2019-02-25T06:44:47.145Z,99.90
2019-02-25T07:06:09.596Z,99.90
2019-02-25T07:08:50.161Z,99.90
2019-02-25T07:12:16.485Z,99.90
2019-02-25T07:15:12.158Z,99.90
2019-02-25T07:17:33.003Z,99.90
2019-02-25T07:20:21.568Z,99.90
2019-02-25T07:22:45.589Z,99.90
2019-02-25T07:25:27.477Z,99.90
2019-02-25T07:27:55.105Z,99.40
2019-02-25T07:30:17.621Z,97.80
2019-02-25T07:32:59.887Z,91.20
2019-02-25T07:35:27.597Z,80.40
2019-02-25T07:37:51.829Z,71.00
2019-02-25T07:40:30.330Z,63.20
2019-02-25T07:42:45.782Z,57.20
2019-02-25T07:45:06.080Z,56.50
2019-02-25T07:47:19.832Z,54.70
2019-02-25T07:49:42.915Z,53.10
2019-02-25T07:52:02.844Z,49.30
2019-02-25T07:54:32.580Z,49.20
2019-02-25T07:57:02.241Z,47.60
2019-02-25T07:59:29.076Z,46.90
2019-02-25T08:02:10.680Z,45.00
2019-02-25T08:04:34.831Z,42.00
2019-02-25T08:07:02.938Z,41.90
2019-02-25T08:09:28.312Z,41.60
2019-02-25T08:11:52.662Z,39.80
2019-02-25T08:14:07.636Z,39.50
2019-02-25T08:16:43.710Z,38.50
2019-02-25T08:19:16.900Z,38.80
2019-02-25T08:21:40.866Z,36.60
2019-02-25T08:24:03.220Z,36.20
2019-02-25T08:26:27.049Z,36.00
2019-02-25T08:29:03.704Z,35.70
2019-02-25T08:31:43.063Z,34.50
2019-02-25T08:34:18.351Z,35.00
2019-02-25T08:37:10.433Z,35.00
2019-02-25T08:42:23.607Z,34.30
2019-02-25T08:44:39.223Z,34.40
2019-02-25T08:46:49.034Z,35.60
2019-02-25T08:49:03.375Z,34.00
2019-02-25T08:51:08.196Z,36.10
2019-02-25T08:53:13.430Z,35.30
2019-02-25T08:55:19.251Z,37.80
2019-02-25T08:57:24.468Z,38.30
2019-02-25T08:59:29.617Z,38.90
2019-02-25T09:01:34.557Z,39.80
2019-02-25T09:03:39.557Z,41.30
2019-02-25T09:05:44.411Z,40.40
2019-02-25T09:07:49.312Z,39.30
2019-02-25T09:09:54.099Z,38.90
2019-02-25T09:11:59.110Z,40.40
2019-02-25T09:14:03.901Z,40.70
2019-02-25T09:16:08.649Z,39.80
2019-02-25T09:18:14.197Z,39.30
2019-02-25T09:20:19.076Z,39.20
2019-02-25T09:22:23.906Z,38.70
2019-02-25T09:24:28.831Z,39.10
2019-02-25T09:26:33.679Z,39.60
2019-02-25T09:28:38.492Z,39.70
2019-02-25T09:30:43.457Z,38.70
2019-02-25T09:32:48.937Z,39.50
2019-02-25T09:34:54.169Z,38.60
2019-02-25T09:37:00.680Z,39.50
2019-02-25T09:39:12.795Z,38.80
2019-02-25T09:41:19.008Z,39.70
2019-02-25T09:43:25.407Z,39.30
2019-02-25T09:45:34.235Z,38.20
2019-02-25T09:47:39.770Z,39.10
2019-02-25T09:49:44.674Z,37.90
2019-02-25T09:51:49.453Z,37.90
2019-02-25T09:53:54.281Z,36.30
2019-02-25T09:55:59.222Z,38.20
2019-02-25T09:58:04.245Z,37.40
2019-02-25T10:00:12.782Z,37.80
2019-02-25T10:02:17.893Z,37.10
2019-02-25T10:04:22.784Z,37.00
2019-02-25T10:06:46.754Z,37.90
2019-02-25T10:08:51.787Z,36.30
2019-02-25T10:11:26.995Z,37.20
2019-02-25T10:13:57.230Z,36.50
2019-02-25T10:16:02.485Z,36.20
2019-02-25T10:18:08.382Z,36.10
2019-02-25T10:20:13.966Z,36.60
2019-02-25T10:22:19.046Z,36.20
2019-02-25T10:24:24.393Z,36.10
2019-02-25T10:26:29.824Z,37.00
2019-02-25T10:28:35.511Z,36.50
2019-02-25T10:30:40.943Z,37.30
2019-02-25T10:32:46.818Z,37.30
2019-02-25T10:34:52.022Z,38.90
2019-02-25T10:36:59.077Z,37.30
2019-02-25T10:39:05.071Z,37.20
2019-02-25T10:41:10.348Z,37.90
2019-02-25T10:43:15.423Z,38.10
2019-02-25T10:45:20.891Z,38.00
2019-02-25T10:47:26.251Z,37.80
2019-02-25T10:49:33.581Z,37.90
2019-02-25T10:51:39.305Z,37.80
2019-02-25T10:53:45.594Z,37.60
2019-02-25T10:55:56.915Z,37.30
2019-02-25T10:58:03.761Z,37.30
2019-02-25T11:00:11.738Z,38.00
2019-02-25T11:04:49.300Z,38.10
2019-02-25T11:06:58.550Z,38.30
2019-02-25T11:09:25.145Z,38.90
2019-02-25T11:11:33.785Z,37.80
2019-02-25T11:13:39.244Z,40.10
2019-02-25T11:15:46.137Z,38.40
2019-02-25T11:17:51.821Z,38.30
2019-02-25T11:19:58.656Z,38.10
2019-02-25T11:22:07.721Z,37.80
2019-02-25T11:24:14.456Z,37.90
2019-02-25T11:26:19.315Z,38.70
2019-02-25T11:28:26.058Z,39.00
2019-02-25T11:30:31.054Z,38.80
2019-02-25T11:32:35.820Z,38.80
2019-02-25T11:34:41.557Z,39.20
2019-02-25T11:36:47.689Z,39.20
2019-02-25T11:38:52.990Z,39.80
2019-02-25T11:40:59.742Z,39.60
2019-02-25T11:43:05.640Z,40.00
2019-02-25T11:45:11.778Z,39.40
2019-02-25T11:47:16.559Z,38.60
2019-02-25T11:49:21.767Z,38.00
2019-02-25T11:51:27.337Z,38.30
2019-02-25T11:53:32.218Z,39.10
2019-02-25T11:55:37.491Z,38.50
2019-02-25T11:57:42.645Z,38.20
2019-02-25T11:59:48.831Z,38.10
2019-02-25T12:01:54.230Z,38.80
2019-02-25T12:03:59.075Z,38.80
2019-02-25T12:06:04.333Z,40.10
2019-02-25T12:08:09.160Z,39.70
2019-02-25T12:10:14.294Z,40.00
2019-02-25T12:12:19.098Z,39.90
2019-02-25T12:14:23.970Z,39.90
2019-02-25T12:16:38.916Z,40.20
2019-02-25T12:18:44.950Z,40.40
2019-02-25T12:20:50.280Z,40.90
2019-02-25T12:22:55.600Z,41.30
2019-02-25T12:25:00.703Z,41.90
2019-02-25T12:27:05.616Z,42.40
2019-02-25T12:29:11.225Z,42.50
2019-02-25T12:31:16.097Z,42.30
2019-02-25T12:33:21.632Z,43.60
2019-02-25T12:35:28.183Z,43.20
2019-02-25T12:37:33.778Z,43.00
2019-02-25T12:39:41.390Z,43.70
2019-02-25T12:41:47.327Z,43.80
2019-02-25T12:43:52.080Z,43.50
2019-02-25T12:45:57.377Z,43.40
2019-02-25T12:48:02.556Z,44.00
2019-02-25T12:50:08.766Z,44.20
2019-02-25T12:52:13.740Z,44.00
2019-02-25T12:54:18.532Z,44.00
2019-02-25T12:56:23.337Z,44.80
2019-02-25T12:58:28.419Z,43.50
2019-02-25T13:00:33.239Z,44.00
2019-02-25T13:02:38.050Z,44.20
2019-02-25T13:04:43.040Z,44.70
2019-02-25T13:06:48.868Z,44.00
2019-02-25T13:08:54.254Z,44.30
2019-02-25T13:10:59.243Z,44.50
2019-02-25T13:13:05.055Z,44.50
2019-02-25T13:15:14.624Z,44.60
2019-02-25T13:17:19.856Z,45.60
2019-02-25T13:19:25.505Z,45.20
2019-02-25T13:21:36.260Z,46.30
2019-02-25T13:23:43.192Z,45.20
2019-02-25T13:25:49.694Z,45.90
2019-02-25T13:27:56.449Z,45.50
2019-02-25T13:30:01.133Z,45.30
2019-02-25T13:32:06.869Z,46.00
2019-02-25T13:34:12.047Z,46.00
2019-02-25T13:36:17.293Z,45.90
2019-02-25T13:38:22.148Z,45.60
2019-02-25T13:40:26.965Z,45.60
2019-02-25T13:42:31.843Z,44.80
2019-02-25T13:44:36.639Z,44.90
2019-02-25T13:46:42.150Z,44.30
2019-02-25T13:48:47.415Z,44.50
2019-02-25T13:50:56.777Z,44.80
2019-02-25T13:53:02.118Z,46.10
2019-02-25T13:55:07.885Z,45.50
2019-02-25T13:57:13.060Z,45.00
2019-02-25T13:59:18.090Z,45.30
2019-02-25T14:01:23.522Z,45.10
2019-02-25T14:03:29.180Z,46.30
2019-02-25T14:05:34.225Z,46.60
2019-02-25T14:07:43.683Z,46.10
2019-02-25T14:12:25.389Z,45.30
2019-02-25T14:18:14.071Z,44.60
2019-02-25T14:20:42.721Z,44.70
2019-02-25T14:23:03.688Z,44.60
2019-02-25T14:25:12.442Z,43.10
2019-02-25T14:27:33.698Z,42.80
2019-02-25T14:29:48.588Z,43.00
2019-02-25T14:31:51.093Z,43.40
2019-02-25T14:33:57.855Z,42.00
2019-02-25T14:36:03.556Z,42.50
2019-02-25T14:38:14.659Z,42.50
2019-02-25T14:40:19.111Z,42.40
2019-02-25T14:42:25.998Z,43.90
2019-02-25T14:44:35.162Z,43.50
2019-02-25T14:46:38.811Z,44.00
2019-02-25T14:48:43.676Z,44.60
2019-02-25T14:50:49.498Z,44.60
2019-02-25T14:52:54.484Z,44.60
2019-02-25T14:55:00.990Z,44.90
2019-02-25T14:57:05.929Z,45.00
2019-02-25T14:59:14.578Z,45.20
2019-02-25T15:01:18.149Z,45.40
2019-02-25T15:03:24.868Z,45.20
2019-02-25T15:05:30.774Z,44.60
2019-02-25T15:07:36.348Z,44.70
2019-02-25T15:09:43.177Z,44.70
2019-02-25T15:11:48.265Z,44.70
2019-02-25T15:13:53.636Z,45.20
2019-02-25T15:15:58.901Z,44.20
2019-02-25T15:18:04.413Z,44.60
2019-02-25T15:20:12.637Z,44.80
2019-02-25T15:22:17.785Z,44.70
2019-02-25T15:24:24.722Z,44.70
2019-02-25T15:26:30.364Z,45.60
2019-02-25T15:28:36.713Z,45.40
2019-02-25T15:30:41.752Z,45.90
2019-02-25T15:32:55.642Z,46.40
2019-02-25T15:34:55.548Z,47.00
2019-02-25T15:37:00.720Z,47.20
2019-02-25T15:39:10.901Z,47.30
2019-02-25T15:41:15.884Z,47.30
2019-02-25T15:43:23.134Z,47.80
2019-02-25T15:45:28.847Z,48.00
2019-02-25T15:47:34.824Z,48.00
2019-02-25T15:49:39.847Z,48.20
2019-02-25T15:51:45.274Z,48.20
2019-02-25T15:53:51.931Z,48.20
2019-02-25T15:56:01.018Z,48.50
2019-02-25T15:58:04.629Z,48.10
2019-02-25T16:02:41.729Z,48.10
2019-02-25T16:04:47.309Z,48.80
2019-02-25T16:06:53.754Z,49.20
2019-02-25T16:09:00.706Z,49.20
2019-02-25T16:11:06.326Z,49.70
2019-02-25T16:13:14.110Z,50.00
2019-02-25T16:16:30.607Z,50.30
2019-02-25T16:18:31.711Z,50.20
2019-02-25T16:20:40.592Z,50.60
2019-02-25T16:22:45.498Z,51.10
2019-02-25T16:24:51.855Z,51.40
2019-02-25T16:26:58.403Z,51.60
2019-02-25T16:29:06.463Z,51.50
2019-02-25T16:31:12.342Z,52.00
2019-02-25T16:33:18.619Z,52.30
2019-02-25T16:35:24.810Z,52.60
2019-02-25T16:37:31.753Z,53.20
2019-02-25T16:39:38.527Z,53.50
2019-02-25T16:41:45.743Z,53.40
2019-02-25T16:43:51.099Z,53.40
2019-02-25T16:45:56.156Z,53.40
2019-02-25T16:48:02.029Z,53.60
2019-02-25T16:50:14.760Z,54.10
2019-02-25T16:52:27.542Z,55.40
2019-02-25T16:54:33.967Z,55.00
2019-02-25T16:56:38.931Z,55.70
2019-02-25T16:58:43.893Z,55.50
2019-02-25T17:00:48.768Z,55.60
2019-02-25T17:02:53.869Z,56.00
2019-02-25T17:04:58.861Z,56.70
2019-02-25T17:07:04.118Z,56.30
2019-02-25T17:09:11.703Z,57.00
2019-02-25T17:11:17.548Z,58.10
2019-02-25T17:13:24.275Z,58.00
2019-02-25T17:15:30.410Z,57.60
2019-02-25T17:17:35.552Z,57.90
2019-02-25T17:19:41.332Z,57.90
2019-02-25T17:21:46.449Z,57.80
2019-02-25T17:23:51.589Z,58.20
2019-02-25T17:25:57.940Z,58.30
2019-02-25T17:28:02.945Z,58.80
2019-02-25T17:30:11.012Z,58.70
2019-02-25T17:32:21.015Z,59.60
2019-02-25T17:34:26.333Z,60.70
2019-02-25T17:36:31.475Z,61.60
2019-02-25T17:38:36.631Z,62.80
2019-02-25T17:40:41.850Z,62.20
2019-02-25T17:42:47.271Z,63.40
2019-02-25T17:44:55.503Z,64.40
2019-02-25T17:47:00.191Z,65.10
2019-02-25T17:49:08.269Z,66.10
2019-02-25T17:51:13.405Z,66.60
2019-02-25T17:53:18.447Z,67.40
2019-02-25T17:55:48.944Z,67.20
2019-02-25T17:58:12.891Z,68.70
2019-02-25T18:09:05.859Z,71.40
2019-02-25T18:11:38.952Z,71.90
2019-02-25T18:14:54.171Z,72.60
2019-02-25T18:16:59.192Z,75.30
2019-02-25T18:19:04.358Z,76.70
2019-02-25T18:21:09.286Z,77.60
2019-02-25T18:23:14.587Z,77.90
2019-02-25T18:25:20.511Z,79.10
2019-02-25T18:27:25.828Z,79.90
2019-02-25T18:29:30.691Z,81.60
2019-02-25T18:31:36.489Z,81.70
2019-02-25T18:33:43.982Z,83.00
2019-02-25T18:35:48.799Z,83.90
2019-02-25T18:37:54.076Z,84.70
2019-02-25T18:39:59.490Z,85.80
2019-02-25T18:42:04.879Z,86.80
2019-02-25T18:44:11.387Z,87.30
2019-02-25T18:46:16.576Z,88.80
2019-02-25T18:48:23.216Z,90.00
2019-02-25T18:50:31.908Z,90.60
2019-02-25T18:52:38.494Z,91.30
2019-02-25T18:54:47.423Z,91.70
2019-02-25T18:56:53.757Z,92.30
2019-02-25T19:06:43.594Z,95.70
2019-02-25T19:14:55.761Z,98.10
2019-02-25T19:20:43.429Z,99.90
2019-02-25T19:22:58.020Z,99.90
2019-02-25T19:29:31.157Z,99.90
2019-02-25T19:31:36.726Z,99.90
2019-02-25T20:00:03.541Z,99.90
2019-02-25T20:02:08.875Z,99.90
2019-02-25T20:04:16.332Z,99.90
2019-02-25T20:06:21.725Z,99.90
2019-02-25T20:08:28.056Z,99.90
2019-02-25T20:10:33.548Z,99.90
2019-02-25T20:12:39.213Z,99.90
2019-02-25T20:14:46.541Z,99.90
2019-02-25T20:16:51.507Z,99.90
2019-02-25T20:18:58.601Z,99.90
2019-02-25T20:21:05.669Z,99.90
2019-02-25T20:23:10.365Z,99.90
2019-02-25T20:25:16.816Z,99.90
2019-02-25T20:27:29.499Z,99.90
2019-02-25T20:29:42.500Z,99.90
2019-02-25T20:31:50.138Z,99.90
2019-02-25T20:33:55.638Z,99.90
2019-02-25T20:36:03.150Z,99.90
2019-02-25T20:38:08.193Z,99.90
2019-02-25T20:40:17.070Z,99.90
2019-02-25T20:42:22.326Z,99.90
2019-02-25T20:44:28.521Z,99.90
2019-02-25T20:46:34.855Z,99.90
2019-02-25T20:48:44.504Z,99.90
2019-02-25T20:50:47.551Z,99.90
2019-02-25T20:52:52.360Z,99.90
2019-02-25T20:55:03.655Z,99.90
2019-02-25T20:57:10.104Z,99.90
2019-02-25T20:59:15.516Z,99.90
2019-02-25T21:01:20.990Z,99.90
2019-02-25T21:03:27.674Z,99.90
2019-02-25T21:05:35.082Z,99.90
2019-02-25T21:07:40.818Z,99.90
2019-02-25T21:09:46.123Z,99.90
2019-02-25T21:11:51.425Z,99.90
2019-02-25T21:13:56.447Z,99.90
2019-02-25T21:16:02.692Z,99.90
2019-02-25T21:18:08.622Z,99.90
2019-02-25T21:20:14.570Z,99.90
2019-02-25T21:22:23.128Z,99.90
2019-02-25T21:24:28.995Z,99.90
2019-02-25T21:26:36.262Z,99.90
2019-02-25T21:28:42.957Z,99.90
2019-02-25T21:30:48.850Z,99.90
2019-02-25T21:32:57.214Z,99.90
2019-02-25T21:35:04.390Z,99.90
2019-02-25T21:37:10.168Z,99.90
2019-02-25T21:39:16.884Z,99.90
2019-02-25T21:41:22.148Z,99.90
2019-02-25T21:43:29.066Z,99.90
2019-02-25T21:45:33.599Z,99.90
2019-02-25T21:47:38.887Z,99.90
2019-02-25T21:49:43.783Z,99.90
2019-02-25T21:51:48.751Z,99.90
2019-02-25T21:53:55.978Z,99.90
2019-02-25T21:56:04.436Z,99.90
2019-02-25T21:58:07.811Z,99.90
2019-02-25T22:00:15.487Z,99.90
2019-02-25T22:02:20.382Z,99.90
2019-02-25T22:04:49.729Z,99.90
2019-02-25T22:06:53.930Z,99.90
2019-02-25T22:09:02.868Z,99.90
2019-02-25T22:11:12.348Z,99.90
2019-02-25T22:13:16.391Z,99.90
2019-02-25T22:15:22.594Z,99.90
2019-02-25T22:17:27.451Z,99.90
2019-02-25T22:19:32.463Z,99.90
2019-02-25T22:21:39.133Z,99.90
2019-02-25T22:23:43.985Z,99.90
2019-02-25T22:25:48.994Z,99.90
2019-02-25T22:27:53.762Z,99.90
2019-02-25T22:30:00.050Z,99.90
2019-02-25T22:32:06.367Z,99.90
2019-02-25T22:34:13.133Z,99.90
2019-02-25T22:36:18.988Z,99.90
2019-02-25T22:38:24.120Z,99.90
2019-02-25T22:40:30.085Z,99.90
2019-02-25T22:42:35.565Z,99.90
2019-02-25T22:44:40.406Z,99.90
2019-02-25T22:46:45.397Z,99.90
2019-02-25T22:48:50.207Z,99.90
2019-02-25T22:50:55.505Z,99.90
2019-02-25T22:53:03.653Z,99.90
2019-02-25T22:55:10.157Z,99.90
2019-02-25T22:57:16.743Z,99.90
2019-02-25T22:59:21.738Z,99.90
2019-02-25T23:01:27.323Z,99.90
2019-02-25T23:03:32.268Z,99.90
2019-02-25T23:05:39.037Z,99.90
2019-02-25T23:07:45.838Z,99.90
2019-02-25T23:09:52.141Z,99.90
2019-02-25T23:11:57.286Z,99.90
2019-02-25T23:14:02.255Z,99.90
2019-02-25T23:16:07.726Z,99.90
2019-02-25T23:18:14.338Z,99.90
2019-02-25T23:20:20.519Z,99.90
2019-02-25T23:22:25.424Z,99.90
2019-02-25T23:24:34.635Z,99.90
2019-02-25T23:26:39.187Z,99.90
2019-02-25T23:28:44.317Z,99.90
2019-02-25T23:30:49.335Z,99.90
2019-02-25T23:32:54.916Z,99.90
2019-02-25T23:34:59.944Z,99.90
2019-02-25T23:37:05.656Z,99.90
2019-02-25T23:39:11.623Z,99.90
2019-02-25T23:41:31.890Z,99.90
2019-02-25T23:43:38.565Z,99.90
2019-02-25T23:45:44.712Z,99.90
2019-02-25T23:47:57.659Z,99.90
2019-02-25T23:50:04.026Z,99.90
2019-02-25T23:52:10.471Z,99.90
2019-02-25T23:54:18.469Z,99.90
2019-02-25T23:56:27.298Z,99.90
2019-02-25T23:58:34.164Z,99.90
